sensor_id;sensor_type;location;lat;lon;timestamp;temperature;humidity
84173;DHT22;74302;40.122;18.310;2024-02-14T00:00:28;12.50;67.00
84173;DHT22;74302;40.122;18.310;2024-02-14T00:02:14;12.40;67.00
84173;DHT22;74302;40.122;18.310;2024-02-14T00:03:57;12.40;67.00
84173;DHT22;74302;40.122;18.310;2024-02-14T00:05:56;12.40;67.00
84173;DHT22;74302;40.122;18.310;2024-02-14T00:08:48;12.40;67.10
84173;DHT22;74302;40.122;18.310;2024-02-14T00:11:40;12.30;67.10
84173;DHT22;74302;40.122;18.310;2024-02-14T00:14:22;12.30;67.10
84173;DHT22;74302;40.122;18.310;2024-02-14T00:16:32;12.30;67.10
84173;DHT22;74302;40.122;18.310;2024-02-14T00:18:17;12.20;67.10
84173;DHT22;74302;40.122;18.310;2024-02-14T00:20:02;12.20;67.00
84173;DHT22;74302;40.122;18.310;2024-02-14T00:21:59;12.30;67.10
84173;DHT22;74302;40.122;18.310;2024-02-14T00:23:44;12.30;67.10
84173;DHT22;74302;40.122;18.310;2024-02-14T00:25:28;12.20;67.00
84173;DHT22;74302;40.122;18.310;2024-02-14T00:27:13;12.30;67.00
84173;DHT22;74302;40.122;18.310;2024-02-14T00:28:57;12.30;67.00
84173;DHT22;74302;40.122;18.310;2024-02-14T00:30:41;12.30;66.90
84173;DHT22;74302;40.122;18.310;2024-02-14T00:32:44;12.20;66.90
84173;DHT22;74302;40.122;18.310;2024-02-14T00:34:29;12.30;66.90
84173;DHT22;74302;40.122;18.310;2024-02-14T00:36:23;12.20;66.90
84173;DHT22;74302;40.122;18.310;2024-02-14T00:39:04;12.20;66.90
84173;DHT22;74302;40.122;18.310;2024-02-14T00:42:15;12.30;66.80
84173;DHT22;74302;40.122;18.310;2024-02-14T00:44:51;12.30;66.80
84173;DHT22;74302;40.122;18.310;2024-02-14T00:46:36;12.20;66.80
84173;DHT22;74302;40.122;18.310;2024-02-14T00:48:19;12.20;66.80
84173;DHT22;74302;40.122;18.310;2024-02-14T00:50:06;12.30;66.80
84173;DHT22;74302;40.122;18.310;2024-02-14T00:51:50;12.30;66.90
84173;DHT22;74302;40.122;18.310;2024-02-14T00:53:33;12.20;66.90
84173;DHT22;74302;40.122;18.310;2024-02-14T00:55:18;12.30;66.90
84173;DHT22;74302;40.122;18.310;2024-02-14T00:57:01;12.30;66.90
84173;DHT22;74302;40.122;18.310;2024-02-14T00:58:45;12.30;66.80
84173;DHT22;74302;40.122;18.310;2024-02-14T01:00:28;12.40;66.80
84173;DHT22;74302;40.122;18.310;2024-02-14T01:02:12;12.40;66.80
84173;DHT22;74302;40.122;18.310;2024-02-14T01:03:55;12.40;66.80
84173;DHT22;74302;40.122;18.310;2024-02-14T01:05:41;12.40;66.80
84173;DHT22;74302;40.122;18.310;2024-02-14T01:07:25;12.40;66.80
84173;DHT22;74302;40.122;18.310;2024-02-14T01:09:09;12.40;66.80
84173;DHT22;74302;40.122;18.310;2024-02-14T01:11:35;12.40;66.80
84173;DHT22;74302;40.122;18.310;2024-02-14T01:14:44;12.40;66.90
84173;DHT22;74302;40.122;18.310;2024-02-14T01:17:23;12.40;66.80
84173;DHT22;74302;40.122;18.310;2024-02-14T01:19:36;12.40;66.70
84173;DHT22;74302;40.122;18.310;2024-02-14T01:21:20;12.40;66.70
84173;DHT22;74302;40.122;18.310;2024-02-14T01:23:04;12.30;66.70
84173;DHT22;74302;40.122;18.310;2024-02-14T01:24:57;12.30;66.70
84173;DHT22;74302;40.122;18.310;2024-02-14T01:26:42;12.30;66.70
84173;DHT22;74302;40.122;18.310;2024-02-14T01:28:26;12.30;66.70
84173;DHT22;74302;40.122;18.310;2024-02-14T01:30:11;12.20;66.80
84173;DHT22;74302;40.122;18.310;2024-02-14T01:31:55;12.30;66.80
84173;DHT22;74302;40.122;18.310;2024-02-14T01:33:39;12.30;66.80
84173;DHT22;74302;40.122;18.310;2024-02-14T01:35:23;12.30;66.80
84173;DHT22;74302;40.122;18.310;2024-02-14T01:37:07;12.30;66.80
84173;DHT22;74302;40.122;18.310;2024-02-14T01:38:52;12.30;66.80
84173;DHT22;74302;40.122;18.310;2024-02-14T01:40:57;12.30;66.80
84173;DHT22;74302;40.122;18.310;2024-02-14T01:43:53;12.30;66.80
84173;DHT22;74302;40.122;18.310;2024-02-14T01:47:01;12.20;66.70
84173;DHT22;74302;40.122;18.310;2024-02-14T01:49:16;12.20;66.70
84173;DHT22;74302;40.122;18.310;2024-02-14T01:51:00;12.20;66.70
84173;DHT22;74302;40.122;18.310;2024-02-14T01:52:43;12.20;66.70
84173;DHT22;74302;40.122;18.310;2024-02-14T01:54:29;12.20;66.70
84173;DHT22;74302;40.122;18.310;2024-02-14T01:56:14;12.20;66.70
84173;DHT22;74302;40.122;18.310;2024-02-14T01:57:58;12.20;66.70
84173;DHT22;74302;40.122;18.310;2024-02-14T01:59:41;12.20;66.70
84173;DHT22;74302;40.122;18.310;2024-02-14T02:01:26;12.20;66.70
84173;DHT22;74302;40.122;18.310;2024-02-14T02:03:12;12.20;66.70
84173;DHT22;74302;40.122;18.310;2024-02-14T02:04:56;12.20;66.70
84173;DHT22;74302;40.122;18.310;2024-02-14T02:06:40;12.20;66.70
84173;DHT22;74302;40.122;18.310;2024-02-14T02:08:24;12.20;66.70
84173;DHT22;74302;40.122;18.310;2024-02-14T02:10:08;12.20;66.70
84173;DHT22;74302;40.122;18.310;2024-02-14T02:11:56;12.20;66.70
84173;DHT22;74302;40.122;18.310;2024-02-14T02:14:16;12.20;66.60
84173;DHT22;74302;40.122;18.310;2024-02-14T02:16:55;12.20;66.60
84173;DHT22;74302;40.122;18.310;2024-02-14T02:19:24;12.20;66.60
84173;DHT22;74302;40.122;18.310;2024-02-14T02:22:11;12.20;66.60
84173;DHT22;74302;40.122;18.310;2024-02-14T02:24:16;12.20;66.50
84173;DHT22;74302;40.122;18.310;2024-02-14T02:26:00;12.20;66.50
84173;DHT22;74302;40.122;18.310;2024-02-14T02:28:04;12.20;66.50
84173;DHT22;74302;40.122;18.310;2024-02-14T02:29:52;12.20;66.60
84173;DHT22;74302;40.122;18.310;2024-02-14T02:31:35;12.20;66.60
84173;DHT22;74302;40.122;18.310;2024-02-14T02:33:21;12.20;66.60
84173;DHT22;74302;40.122;18.310;2024-02-14T02:35:06;12.20;66.60
84173;DHT22;74302;40.122;18.310;2024-02-14T02:37:09;12.20;66.60
84173;DHT22;74302;40.122;18.310;2024-02-14T02:39:24;12.20;66.60
84173;DHT22;74302;40.122;18.310;2024-02-14T02:41:38;12.20;66.50
84173;DHT22;74302;40.122;18.310;2024-02-14T02:44:41;12.10;66.50
84173;DHT22;74302;40.122;18.310;2024-02-14T02:47:53;12.20;66.50
84173;DHT22;74302;40.122;18.310;2024-02-14T02:50:27;12.10;66.50
84173;DHT22;74302;40.122;18.310;2024-02-14T02:52:31;12.10;66.50
84173;DHT22;74302;40.122;18.310;2024-02-14T02:54:36;12.10;66.60
84173;DHT22;74302;40.122;18.310;2024-02-14T02:56:38;12.10;66.60
84173;DHT22;74302;40.122;18.310;2024-02-14T02:58:23;12.10;66.60
84173;DHT22;74302;40.122;18.310;2024-02-14T03:00:08;12.10;66.70
84173;DHT22;74302;40.122;18.310;2024-02-14T03:02:00;12.10;66.60
84173;DHT22;74302;40.122;18.310;2024-02-14T03:04:04;12.10;66.60
84173;DHT22;74302;40.122;18.310;2024-02-14T03:06:09;12.10;66.60
84173;DHT22;74302;40.122;18.310;2024-02-14T03:08:14;12.10;66.60
84173;DHT22;74302;40.122;18.310;2024-02-14T03:10:20;12.10;66.70
84173;DHT22;74302;40.122;18.310;2024-02-14T03:12:24;12.10;66.70
84173;DHT22;74302;40.122;18.310;2024-02-14T03:14:31;12.10;66.60
84173;DHT22;74302;40.122;18.310;2024-02-14T03:16:45;12.20;66.60
84173;DHT22;74302;40.122;18.310;2024-02-14T03:18:30;12.10;66.60
84173;DHT22;74302;40.122;18.310;2024-02-14T03:20:14;12.10;66.60
84173;DHT22;74302;40.122;18.310;2024-02-14T03:21:59;12.10;66.60
84173;DHT22;74302;40.122;18.310;2024-02-14T03:23:42;12.10;66.60
84173;DHT22;74302;40.122;18.310;2024-02-14T03:25:30;12.10;66.60
84173;DHT22;74302;40.122;18.310;2024-02-14T03:27:16;12.20;66.60
84173;DHT22;74302;40.122;18.310;2024-02-14T03:29:01;12.20;66.60
84173;DHT22;74302;40.122;18.310;2024-02-14T03:30:45;12.20;66.50
84173;DHT22;74302;40.122;18.310;2024-02-14T03:32:28;12.10;66.50
84173;DHT22;74302;40.122;18.310;2024-02-14T03:34:12;12.20;66.50
84173;DHT22;74302;40.122;18.310;2024-02-14T03:35:57;12.10;66.50
84173;DHT22;74302;40.122;18.310;2024-02-14T03:37:41;12.10;66.50
84173;DHT22;74302;40.122;18.310;2024-02-14T03:39:25;12.10;66.50
84173;DHT22;74302;40.122;18.310;2024-02-14T03:41:56;12.10;66.50
84173;DHT22;74302;40.122;18.310;2024-02-14T03:45:17;12.10;66.50
84173;DHT22;74302;40.122;18.310;2024-02-14T03:48:16;12.00;66.40
84173;DHT22;74302;40.122;18.310;2024-02-14T03:50:44;11.90;66.40
84173;DHT22;74302;40.122;18.310;2024-02-14T03:52:29;11.90;66.40
84173;DHT22;74302;40.122;18.310;2024-02-14T03:54:14;11.90;66.40
84173;DHT22;74302;40.122;18.310;2024-02-14T03:56:00;11.90;66.50
84173;DHT22;74302;40.122;18.310;2024-02-14T03:57:45;11.80;66.50
84173;DHT22;74302;40.122;18.310;2024-02-14T03:59:29;11.80;66.50
84173;DHT22;74302;40.122;18.310;2024-02-14T04:01:12;11.80;66.50
84173;DHT22;74302;40.122;18.310;2024-02-14T04:02:57;11.80;66.50
84173;DHT22;74302;40.122;18.310;2024-02-14T04:04:42;11.80;66.50
84173;DHT22;74302;40.122;18.310;2024-02-14T04:06:26;11.80;66.50
84173;DHT22;74302;40.122;18.310;2024-02-14T04:08:10;11.80;66.40
84173;DHT22;74302;40.122;18.310;2024-02-14T04:09:54;11.80;66.40
84173;DHT22;74302;40.122;18.310;2024-02-14T04:11:37;11.70;66.40
84173;DHT22;74302;40.122;18.310;2024-02-14T04:13:24;11.70;66.40
84173;DHT22;74302;40.122;18.310;2024-02-14T04:15:08;11.70;66.40
84173;DHT22;74302;40.122;18.310;2024-02-14T04:17:04;11.70;66.40
84173;DHT22;74302;40.122;18.310;2024-02-14T04:18:50;11.70;66.40
84173;DHT22;74302;40.122;18.310;2024-02-14T04:20:36;11.70;66.40
84173;DHT22;74302;40.122;18.310;2024-02-14T04:22:19;11.70;66.50
84173;DHT22;74302;40.122;18.310;2024-02-14T04:24:04;11.70;66.50
84173;DHT22;74302;40.122;18.310;2024-02-14T04:25:48;11.70;66.40
84173;DHT22;74302;40.122;18.310;2024-02-14T04:27:31;11.70;66.40
84173;DHT22;74302;40.122;18.310;2024-02-14T04:29:17;11.70;66.40
84173;DHT22;74302;40.122;18.310;2024-02-14T04:31:00;11.70;66.40
84173;DHT22;74302;40.122;18.310;2024-02-14T04:32:50;11.60;66.40
84173;DHT22;74302;40.122;18.310;2024-02-14T04:34:34;11.70;66.40
84173;DHT22;74302;40.122;18.310;2024-02-14T04:36:21;11.70;66.40
84173;DHT22;74302;40.122;18.310;2024-02-14T04:38:06;11.70;66.40
84173;DHT22;74302;40.122;18.310;2024-02-14T04:39:51;11.70;66.40
84173;DHT22;74302;40.122;18.310;2024-02-14T04:41:35;11.70;66.40
84173;DHT22;74302;40.122;18.310;2024-02-14T04:43:25;11.70;66.30
84173;DHT22;74302;40.122;18.310;2024-02-14T04:45:11;11.70;66.30
84173;DHT22;74302;40.122;18.310;2024-02-14T04:47:08;11.70;66.30
84173;DHT22;74302;40.122;18.310;2024-02-14T04:48:52;11.70;66.30
84173;DHT22;74302;40.122;18.310;2024-02-14T04:50:53;11.70;66.30
84173;DHT22;74302;40.122;18.310;2024-02-14T04:53:50;11.60;66.30
84173;DHT22;74302;40.122;18.310;2024-02-14T04:56:15;11.70;66.20
84173;DHT22;74302;40.122;18.310;2024-02-14T04:59:32;11.60;66.20
84173;DHT22;74302;40.122;18.310;2024-02-14T05:01:31;11.60;66.30
84173;DHT22;74302;40.122;18.310;2024-02-14T05:03:15;11.60;66.20
84173;DHT22;74302;40.122;18.310;2024-02-14T05:05:00;11.60;66.30
84173;DHT22;74302;40.122;18.310;2024-02-14T05:06:46;11.60;66.30
84173;DHT22;74302;40.122;18.310;2024-02-14T05:08:31;11.60;66.30
84173;DHT22;74302;40.122;18.310;2024-02-14T05:10:14;11.60;66.30
84173;DHT22;74302;40.122;18.310;2024-02-14T05:11:58;11.60;66.30
84173;DHT22;74302;40.122;18.310;2024-02-14T05:13:41;11.60;66.30
84173;DHT22;74302;40.122;18.310;2024-02-14T05:15:26;11.60;66.30
84173;DHT22;74302;40.122;18.310;2024-02-14T05:17:11;11.60;66.30
84173;DHT22;74302;40.122;18.310;2024-02-14T05:18:55;11.60;66.30
84173;DHT22;74302;40.122;18.310;2024-02-14T05:20:38;11.60;66.30
84173;DHT22;74302;40.122;18.310;2024-02-14T05:22:22;11.60;66.30
84173;DHT22;74302;40.122;18.310;2024-02-14T05:24:05;11.50;66.30
84173;DHT22;74302;40.122;18.310;2024-02-14T05:26:09;11.50;66.20
84173;DHT22;74302;40.122;18.310;2024-02-14T05:28:51;11.60;66.20
84173;DHT22;74302;40.122;18.310;2024-02-14T05:31:46;11.50;66.20
84173;DHT22;74302;40.122;18.310;2024-02-14T05:34:06;11.50;66.10
84173;DHT22;74302;40.122;18.310;2024-02-14T05:35:50;11.50;66.20
84173;DHT22;74302;40.122;18.310;2024-02-14T05:37:34;11.50;66.20
84173;DHT22;74302;40.122;18.310;2024-02-14T05:39:20;11.40;66.20
84173;DHT22;74302;40.122;18.310;2024-02-14T05:41:03;11.40;66.20
84173;DHT22;74302;40.122;18.310;2024-02-14T05:42:50;11.40;66.20
84173;DHT22;74302;40.122;18.310;2024-02-14T05:44:33;11.40;66.20
84173;DHT22;74302;40.122;18.310;2024-02-14T05:46:18;11.40;66.20
84173;DHT22;74302;40.122;18.310;2024-02-14T05:48:03;11.50;66.10
84173;DHT22;74302;40.122;18.310;2024-02-14T05:49:49;11.40;66.10
84173;DHT22;74302;40.122;18.310;2024-02-14T05:51:33;11.40;66.10
84173;DHT22;74302;40.122;18.310;2024-02-14T05:53:16;11.40;66.10
84173;DHT22;74302;40.122;18.310;2024-02-14T05:55:46;11.50;66.00
84173;DHT22;74302;40.122;18.310;2024-02-14T05:58:45;11.40;66.00
84173;DHT22;74302;40.122;18.310;2024-02-14T06:01:19;11.40;65.90
84173;DHT22;74302;40.122;18.310;2024-02-14T06:04:25;11.50;65.90
84173;DHT22;74302;40.122;18.310;2024-02-14T06:06:57;11.50;65.80
84173;DHT22;74302;40.122;18.310;2024-02-14T06:08:42;11.50;65.70
84173;DHT22;74302;40.122;18.310;2024-02-14T06:10:25;11.50;65.80
84173;DHT22;74302;40.122;18.310;2024-02-14T06:12:09;11.60;65.80
84173;DHT22;74302;40.122;18.310;2024-02-14T06:13:52;11.60;65.80
84173;DHT22;74302;40.122;18.310;2024-02-14T06:15:36;11.70;65.70
84173;DHT22;74302;40.122;18.310;2024-02-14T06:17:20;11.70;65.60
84173;DHT22;74302;40.122;18.310;2024-02-14T06:19:04;11.80;65.50
84173;DHT22;74302;40.122;18.310;2024-02-14T06:20:48;11.90;65.40
84173;DHT22;74302;40.122;18.310;2024-02-14T06:22:34;11.90;65.30
84173;DHT22;74302;40.122;18.310;2024-02-14T06:24:19;12.10;65.20
84173;DHT22;74302;40.122;18.310;2024-02-14T06:26:12;12.20;65.00
84173;DHT22;74302;40.122;18.310;2024-02-14T06:29:29;12.40;64.80
84173;DHT22;74302;40.122;18.310;2024-02-14T06:31:15;12.60;64.50
84173;DHT22;74302;40.122;18.310;2024-02-14T06:32:58;12.80;64.20
84173;DHT22;74302;40.122;18.310;2024-02-14T06:34:43;13.00;64.00
84173;DHT22;74302;40.122;18.310;2024-02-14T06:36:26;13.10;63.80
84173;DHT22;74302;40.122;18.310;2024-02-14T06:38:12;13.40;63.60
84173;DHT22;74302;40.122;18.310;2024-02-14T06:39:56;13.60;63.40
84173;DHT22;74302;40.122;18.310;2024-02-14T06:41:39;13.70;63.20
84173;DHT22;74302;40.122;18.310;2024-02-14T06:43:24;13.90;63.00
84173;DHT22;74302;40.122;18.310;2024-02-14T06:45:08;14.10;62.80
84173;DHT22;74302;40.122;18.310;2024-02-14T06:46:52;14.30;62.50
84173;DHT22;74302;40.122;18.310;2024-02-14T06:48:35;14.60;62.30
84173;DHT22;74302;40.122;18.310;2024-02-14T06:50:19;14.80;62.00
84173;DHT22;74302;40.122;18.310;2024-02-14T06:52:03;15.10;61.80
84173;DHT22;74302;40.122;18.310;2024-02-14T06:53:49;15.30;61.50
84173;DHT22;74302;40.122;18.310;2024-02-14T06:55:33;15.50;61.20
84173;DHT22;74302;40.122;18.310;2024-02-14T06:57:16;15.70;61.00
84173;DHT22;74302;40.122;18.310;2024-02-14T06:59:01;16.00;60.70
84173;DHT22;74302;40.122;18.310;2024-02-14T07:00:46;16.20;60.40
84173;DHT22;74302;40.122;18.310;2024-02-14T07:02:30;16.50;60.10
84173;DHT22;74302;40.122;18.310;2024-02-14T07:04:14;16.70;59.80
84173;DHT22;74302;40.122;18.310;2024-02-14T07:05:57;16.80;59.90
84173;DHT22;74302;40.122;18.310;2024-02-14T07:07:41;17.20;59.90
84173;DHT22;74302;40.122;18.310;2024-02-14T07:09:25;17.70;59.80
84173;DHT22;74302;40.122;18.310;2024-02-14T07:11:11;18.30;59.00
84173;DHT22;74302;40.122;18.310;2024-02-14T07:12:55;19.00;58.10
84173;DHT22;74302;40.122;18.310;2024-02-14T07:14:39;19.80;57.00
84173;DHT22;74302;40.122;18.310;2024-02-14T07:16:22;20.80;55.70
84173;DHT22;74302;40.122;18.310;2024-02-14T07:18:06;22.00;54.30
84173;DHT22;74302;40.122;18.310;2024-02-14T07:19:52;23.20;52.60
84173;DHT22;74302;40.122;18.310;2024-02-14T07:21:36;24.20;51.10
84173;DHT22;74302;40.122;18.310;2024-02-14T07:23:20;25.20;49.90
84173;DHT22;74302;40.122;18.310;2024-02-14T07:25:06;26.00;48.90
84173;DHT22;74302;40.122;18.310;2024-02-14T07:26:50;26.80;48.10
84173;DHT22;74302;40.122;18.310;2024-02-14T07:28:34;27.40;47.50
84173;DHT22;74302;40.122;18.310;2024-02-14T07:30:18;28.10;47.30
84173;DHT22;74302;40.122;18.310;2024-02-14T07:32:02;28.80;46.50
84173;DHT22;74302;40.122;18.310;2024-02-14T07:33:46;29.10;46.00
84173;DHT22;74302;40.122;18.310;2024-02-14T07:35:31;28.20;46.40
84173;DHT22;74302;40.122;18.310;2024-02-14T07:37:15;27.50;47.60
84173;DHT22;74302;40.122;18.310;2024-02-14T07:39:00;27.70;48.50
84173;DHT22;74302;40.122;18.310;2024-02-14T07:40:46;28.30;47.60
84173;DHT22;74302;40.122;18.310;2024-02-14T07:42:35;28.90;46.90
84173;DHT22;74302;40.122;18.310;2024-02-14T07:44:19;29.60;46.10
84173;DHT22;74302;40.122;18.310;2024-02-14T07:46:02;30.20;45.50
84173;DHT22;74302;40.122;18.310;2024-02-14T07:47:49;30.70;44.80
84173;DHT22;74302;40.122;18.310;2024-02-14T07:49:32;31.20;44.30
84173;DHT22;74302;40.122;18.310;2024-02-14T07:51:16;31.60;44.20
84173;DHT22;74302;40.122;18.310;2024-02-14T07:52:59;31.80;43.80
84173;DHT22;74302;40.122;18.310;2024-02-14T07:54:43;32.10;43.50
84173;DHT22;74302;40.122;18.310;2024-02-14T07:56:29;32.30;43.30
84173;DHT22;74302;40.122;18.310;2024-02-14T07:58:13;32.60;43.20
84173;DHT22;74302;40.122;18.310;2024-02-14T07:59:58;32.80;43.00
84173;DHT22;74302;40.122;18.310;2024-02-14T08:01:47;33.10;42.50
84173;DHT22;74302;40.122;18.310;2024-02-14T08:03:30;33.20;42.30
84173;DHT22;74302;40.122;18.310;2024-02-14T08:05:14;33.10;42.50
84173;DHT22;74302;40.122;18.310;2024-02-14T08:06:57;33.20;42.50
84173;DHT22;74302;40.122;18.310;2024-02-14T08:08:42;33.30;42.40
84173;DHT22;74302;40.122;18.310;2024-02-14T08:10:26;33.50;42.30
84173;DHT22;74302;40.122;18.310;2024-02-14T08:12:11;33.50;42.20
84173;DHT22;74302;40.122;18.310;2024-02-14T08:13:56;33.40;42.10
84173;DHT22;74302;40.122;18.310;2024-02-14T08:15:39;33.30;42.30
84173;DHT22;74302;40.122;18.310;2024-02-14T08:17:23;33.20;42.30
84173;DHT22;74302;40.122;18.310;2024-02-14T08:19:06;33.20;42.20
84173;DHT22;74302;40.122;18.310;2024-02-14T08:20:50;32.80;41.90
84173;DHT22;74302;40.122;18.310;2024-02-14T08:22:34;31.70;42.60
84173;DHT22;74302;40.122;18.310;2024-02-14T08:24:18;30.20;43.70
84173;DHT22;74302;40.122;18.310;2024-02-14T08:26:03;28.50;45.30
84173;DHT22;74302;40.122;18.310;2024-02-14T08:27:54;27.00;46.80
84173;DHT22;74302;40.122;18.310;2024-02-14T08:29:38;25.60;48.30
84173;DHT22;74302;40.122;18.310;2024-02-14T08:31:23;24.60;49.50
84173;DHT22;74302;40.122;18.310;2024-02-14T08:33:07;23.70;50.50
84173;DHT22;74302;40.122;18.310;2024-02-14T08:34:51;22.80;51.40
84173;DHT22;74302;40.122;18.310;2024-02-14T08:36:35;22.10;52.10
84173;DHT22;74302;40.122;18.310;2024-02-14T08:38:23;21.60;52.50
84173;DHT22;74302;40.122;18.310;2024-02-14T08:40:08;21.10;52.90
84173;DHT22;74302;40.122;18.310;2024-02-14T08:41:55;20.70;53.30
84173;DHT22;74302;40.122;18.310;2024-02-14T08:43:39;20.30;53.60
84173;DHT22;74302;40.122;18.310;2024-02-14T08:45:26;20.00;53.80
84173;DHT22;74302;40.122;18.310;2024-02-14T08:47:12;19.70;54.00
84173;DHT22;74302;40.122;18.310;2024-02-14T08:48:57;19.50;54.20
84173;DHT22;74302;40.122;18.310;2024-02-14T08:50:41;19.30;54.30
84173;DHT22;74302;40.122;18.310;2024-02-14T08:52:27;19.20;54.40
84173;DHT22;74302;40.122;18.310;2024-02-14T08:54:11;19.10;54.50
84173;DHT22;74302;40.122;18.310;2024-02-14T08:55:55;19.00;54.40
84173;DHT22;74302;40.122;18.310;2024-02-14T08:57:38;18.90;54.50
84173;DHT22;74302;40.122;18.310;2024-02-14T08:59:23;18.70;54.40
84173;DHT22;74302;40.122;18.310;2024-02-14T09:01:08;18.60;54.30
84173;DHT22;74302;40.122;18.310;2024-02-14T09:02:54;18.50;54.40
84173;DHT22;74302;40.122;18.310;2024-02-14T09:04:38;18.30;54.40
84173;DHT22;74302;40.122;18.310;2024-02-14T09:06:22;18.20;54.60
84173;DHT22;74302;40.122;18.310;2024-02-14T09:08:06;18.20;54.70
84173;DHT22;74302;40.122;18.310;2024-02-14T09:09:51;18.10;54.60
84173;DHT22;74302;40.122;18.310;2024-02-14T09:11:34;18.10;54.70
84173;DHT22;74302;40.122;18.310;2024-02-14T09:13:17;17.90;54.70
84173;DHT22;74302;40.122;18.310;2024-02-14T09:15:04;17.90;54.60
84173;DHT22;74302;40.122;18.310;2024-02-14T09:16:48;17.90;54.60
84173;DHT22;74302;40.122;18.310;2024-02-14T09:18:33;17.90;54.60
84173;DHT22;74302;40.122;18.310;2024-02-14T09:20:18;17.80;54.60
84173;DHT22;74302;40.122;18.310;2024-02-14T09:22:01;17.70;54.60
84173;DHT22;74302;40.122;18.310;2024-02-14T09:23:49;17.80;54.70
84173;DHT22;74302;40.122;18.310;2024-02-14T09:25:33;17.80;54.60
84173;DHT22;74302;40.122;18.310;2024-02-14T09:27:17;17.70;54.70
84173;DHT22;74302;40.122;18.310;2024-02-14T09:29:00;17.60;54.70
84173;DHT22;74302;40.122;18.310;2024-02-14T09:30:45;17.60;54.70
84173;DHT22;74302;40.122;18.310;2024-02-14T09:32:29;17.50;54.70
84173;DHT22;74302;40.122;18.310;2024-02-14T09:34:13;17.50;54.70
84173;DHT22;74302;40.122;18.310;2024-02-14T09:35:57;17.40;54.80
84173;DHT22;74302;40.122;18.310;2024-02-14T09:37:42;17.40;54.80
84173;DHT22;74302;40.122;18.310;2024-02-14T09:39:26;17.30;54.80
84173;DHT22;74302;40.122;18.310;2024-02-14T09:41:15;17.30;54.70
84173;DHT22;74302;40.122;18.310;2024-02-14T09:43:03;17.30;54.80
84173;DHT22;74302;40.122;18.310;2024-02-14T09:44:51;17.30;54.80
84173;DHT22;74302;40.122;18.310;2024-02-14T09:46:37;17.50;54.70
84173;DHT22;74302;40.122;18.310;2024-02-14T09:48:22;17.60;54.50
84173;DHT22;74302;40.122;18.310;2024-02-14T09:50:08;17.70;54.50
84173;DHT22;74302;40.122;18.310;2024-02-14T09:51:53;17.90;54.30
84173;DHT22;74302;40.122;18.310;2024-02-14T09:53:39;17.90;53.90
84173;DHT22;74302;40.122;18.310;2024-02-14T09:55:23;17.80;54.00
84173;DHT22;74302;40.122;18.310;2024-02-14T09:57:07;17.80;54.10
84173;DHT22;74302;40.122;18.310;2024-02-14T09:58:51;17.90;54.20
84173;DHT22;74302;40.122;18.310;2024-02-14T10:00:39;17.90;54.10
84173;DHT22;74302;40.122;18.310;2024-02-14T10:02:25;17.80;54.00
84173;DHT22;74302;40.122;18.310;2024-02-14T10:04:12;17.80;54.10
84173;DHT22;74302;40.122;18.310;2024-02-14T10:05:55;17.70;54.10
84173;DHT22;74302;40.122;18.310;2024-02-14T10:07:40;17.80;54.00
84173;DHT22;74302;40.122;18.310;2024-02-14T10:09:25;17.80;54.00
84173;DHT22;74302;40.122;18.310;2024-02-14T10:11:09;17.80;54.10
84173;DHT22;74302;40.122;18.310;2024-02-14T10:12:54;17.80;54.00
84173;DHT22;74302;40.122;18.310;2024-02-14T10:14:38;17.70;54.10
84173;DHT22;74302;40.122;18.310;2024-02-14T10:16:22;17.70;54.10
84173;DHT22;74302;40.122;18.310;2024-02-14T10:18:09;17.80;54.10
84173;DHT22;74302;40.122;18.310;2024-02-14T10:19:57;17.90;54.00
84173;DHT22;74302;40.122;18.310;2024-02-14T10:21:42;17.90;54.00
84173;DHT22;74302;40.122;18.310;2024-02-14T10:23:27;17.90;54.00
84173;DHT22;74302;40.122;18.310;2024-02-14T10:25:12;18.00;53.90
84173;DHT22;74302;40.122;18.310;2024-02-14T10:26:59;18.00;53.90
84173;DHT22;74302;40.122;18.310;2024-02-14T10:28:42;17.90;53.80
84173;DHT22;74302;40.122;18.310;2024-02-14T10:30:28;18.00;53.80
84173;DHT22;74302;40.122;18.310;2024-02-14T10:32:15;18.10;53.70
84173;DHT22;74302;40.122;18.310;2024-02-14T10:34:02;18.20;53.50
84173;DHT22;74302;40.122;18.310;2024-02-14T10:35:50;18.20;53.40
84173;DHT22;74302;40.122;18.310;2024-02-14T10:37:37;18.10;53.50
84173;DHT22;74302;40.122;18.310;2024-02-14T10:39:21;18.00;53.50
84173;DHT22;74302;40.122;18.310;2024-02-14T10:41:06;17.90;53.60
84173;DHT22;74302;40.122;18.310;2024-02-14T10:42:51;17.70;53.80
84173;DHT22;74302;40.122;18.310;2024-02-14T10:44:37;17.70;54.00
84173;DHT22;74302;40.122;18.310;2024-02-14T10:46:23;17.60;54.10
84173;DHT22;74302;40.122;18.310;2024-02-14T10:48:11;17.40;54.10
84173;DHT22;74302;40.122;18.310;2024-02-14T10:49:57;17.20;54.20
84173;DHT22;74302;40.122;18.310;2024-02-14T10:51:45;17.20;54.40
84173;DHT22;74302;40.122;18.310;2024-02-14T10:53:32;17.10;54.50
84173;DHT22;74302;40.122;18.310;2024-02-14T10:55:17;17.10;54.50
84173;DHT22;74302;40.122;18.310;2024-02-14T10:57:05;17.10;54.50
84173;DHT22;74302;40.122;18.310;2024-02-14T10:58:55;17.20;54.40
84173;DHT22;74302;40.122;18.310;2024-02-14T11:00:41;17.30;54.20
84173;DHT22;74302;40.122;18.310;2024-02-14T11:02:26;17.30;54.20
84173;DHT22;74302;40.122;18.310;2024-02-14T11:04:13;17.20;54.10
84173;DHT22;74302;40.122;18.310;2024-02-14T11:06:01;17.20;54.20
84173;DHT22;74302;40.122;18.310;2024-02-14T11:07:47;17.10;54.30
84173;DHT22;74302;40.122;18.310;2024-02-14T11:09:32;17.10;54.40
84173;DHT22;74302;40.122;18.310;2024-02-14T11:11:17;17.20;54.30
84173;DHT22;74302;40.122;18.310;2024-02-14T11:13:02;17.20;54.20
84173;DHT22;74302;40.122;18.310;2024-02-14T11:14:47;17.20;54.10
84173;DHT22;74302;40.122;18.310;2024-02-14T11:16:32;17.10;54.10
84173;DHT22;74302;40.122;18.310;2024-02-14T11:18:25;16.90;54.20
84173;DHT22;74302;40.122;18.310;2024-02-14T11:20:16;17.00;54.30
84173;DHT22;74302;40.122;18.310;2024-02-14T11:22:10;17.00;54.30
84173;DHT22;74302;40.122;18.310;2024-02-14T11:23:54;17.10;54.10
84173;DHT22;74302;40.122;18.310;2024-02-14T11:25:39;17.20;54.00
84173;DHT22;74302;40.122;18.310;2024-02-14T11:27:23;17.20;54.00
84173;DHT22;74302;40.122;18.310;2024-02-14T11:29:07;17.20;54.00
84173;DHT22;74302;40.122;18.310;2024-02-14T11:31:00;17.20;53.90
84173;DHT22;74302;40.122;18.310;2024-02-14T11:32:47;17.20;54.00
84173;DHT22;74302;40.122;18.310;2024-02-14T11:34:31;17.20;54.00
84173;DHT22;74302;40.122;18.310;2024-02-14T11:36:17;17.20;54.00